Webster, South Dakota
Current Conditions -  °F | °C
As of 12:53 AM on Saturday 20 Dec 2014 (Local Time) from KATY Reporting Station
Haze Haze  
Wind Chill: 20°   Ceiling: 300
Heat Index: 29°   Visibility: 3mi
Dew Point: 27°   Wind: 10mph
Humidity: 92%   Direction: 190°S
Pressure: 30"   Gusts: NA
Location:  45.33°N, 97.52°W
Report Text: KATY 200653Z AUTO 19009KT 3SM BR OVC003 M02/M03 A3000 RMK AO2 SLP181 T10171028
Loading
Personal Weather Stations






























Interactive Weather Map New forecast layout! Learn more

10-Day Weather Forecast

Advertisements
Track Severe Weather on mobile